sensor_id;sensor_type;location;lat;lon;timestamp;temperature;humidity
14527;DHT22;7350;51.208;4.238;2022-07-23T00:01:41;18.20;99.90
14527;DHT22;7350;51.208;4.238;2022-07-23T00:04:08;18.20;99.90
14527;DHT22;7350;51.208;4.238;2022-07-23T00:06:35;18.20;99.90
14527;DHT22;7350;51.208;4.238;2022-07-23T00:09:02;18.10;99.90
14527;DHT22;7350;51.208;4.238;2022-07-23T00:11:29;18.20;99.90
14527;DHT22;7350;51.208;4.238;2022-07-23T00:13:57;17.90;99.90
14527;DHT22;7350;51.208;4.238;2022-07-23T00:16:24;17.80;99.90
14527;DHT22;7350;51.208;4.238;2022-07-23T00:18:51;17.90;99.90
14527;DHT22;7350;51.208;4.238;2022-07-23T00:21:18;17.80;99.90
14527;DHT22;7350;51.208;4.238;2022-07-23T00:23:45;17.80;99.90
14527;DHT22;7350;51.208;4.238;2022-07-23T00:26:12;17.70;99.90
14527;DHT22;7350;51.208;4.238;2022-07-23T00:28:39;17.80;99.90
14527;DHT22;7350;51.208;4.238;2022-07-23T00:31:07;17.90;99.90
14527;DHT22;7350;51.208;4.238;2022-07-23T00:33:34;18.10;99.90
14527;DHT22;7350;51.208;4.238;2022-07-23T00:36:01;18.20;99.90
14527;DHT22;7350;51.208;4.238;2022-07-23T00:38:28;18.30;99.90
14527;DHT22;7350;51.208;4.238;2022-07-23T00:40:55;18.30;99.90
14527;DHT22;7350;51.208;4.238;2022-07-23T00:43:22;18.40;99.90
14527;DHT22;7350;51.208;4.238;2022-07-23T00:45:49;18.40;99.90
14527;DHT22;7350;51.208;4.238;2022-07-23T00:48:18;18.40;99.90
14527;DHT22;7350;51.208;4.238;2022-07-23T00:50:45;18.30;99.90
14527;DHT22;7350;51.208;4.238;2022-07-23T00:53:12;18.40;99.90
14527;DHT22;7350;51.208;4.238;2022-07-23T00:55:40;18.40;99.90
14527;DHT22;7350;51.208;4.238;2022-07-23T00:58:06;18.50;99.90
14527;DHT22;7350;51.208;4.238;2022-07-23T01:00:35;18.30;99.90
14527;DHT22;7350;51.208;4.238;2022-07-23T01:03:02;18.10;99.90
14527;DHT22;7350;51.208;4.238;2022-07-23T01:05:30;18.30;99.90
14527;DHT22;7350;51.208;4.238;2022-07-23T01:07:57;18.30;99.90
14527;DHT22;7350;51.208;4.238;2022-07-23T01:10:25;18.20;99.90
14527;DHT22;7350;51.208;4.238;2022-07-23T01:12:58;18.10;99.90
14527;DHT22;7350;51.208;4.238;2022-07-23T01:15:25;18.00;99.90
14527;DHT22;7350;51.208;4.238;2022-07-23T01:17:52;18.10;99.90
14527;DHT22;7350;51.208;4.238;2022-07-23T01:20:19;18.10;99.90
14527;DHT22;7350;51.208;4.238;2022-07-23T01:22:48;17.90;99.90
14527;DHT22;7350;51.208;4.238;2022-07-23T01:25:15;18.00;99.90
14527;DHT22;7350;51.208;4.238;2022-07-23T01:27:42;17.90;99.90
14527;DHT22;7350;51.208;4.238;2022-07-23T01:30:10;18.10;99.90
14527;DHT22;7350;51.208;4.238;2022-07-23T01:32:38;18.10;99.90
14527;DHT22;7350;51.208;4.238;2022-07-23T01:35:06;18.20;99.90
14527;DHT22;7350;51.208;4.238;2022-07-23T01:37:33;18.20;99.90
14527;DHT22;7350;51.208;4.238;2022-07-23T01:40:02;18.20;99.90
14527;DHT22;7350;51.208;4.238;2022-07-23T01:42:30;18.10;99.90
14527;DHT22;7350;51.208;4.238;2022-07-23T01:44:57;18.00;99.90
14527;DHT22;7350;51.208;4.238;2022-07-23T01:47:24;17.90;99.90
14527;DHT22;7350;51.208;4.238;2022-07-23T01:49:51;17.90;99.90
14527;DHT22;7350;51.208;4.238;2022-07-23T01:52:17;17.90;99.90
14527;DHT22;7350;51.208;4.238;2022-07-23T01:54:44;17.90;99.90
14527;DHT22;7350;51.208;4.238;2022-07-23T01:57:13;17.60;99.90
14527;DHT22;7350;51.208;4.238;2022-07-23T01:59:40;17.30;99.90
14527;DHT22;7350;51.208;4.238;2022-07-23T02:02:07;17.30;99.90
14527;DHT22;7350;51.208;4.238;2022-07-23T02:04:34;17.50;99.90
14527;DHT22;7350;51.208;4.238;2022-07-23T02:07:03;17.60;99.90
14527;DHT22;7350;51.208;4.238;2022-07-23T02:09:30;17.70;99.90
14527;DHT22;7350;51.208;4.238;2022-07-23T02:11:57;17.80;99.90
14527;DHT22;7350;51.208;4.238;2022-07-23T02:14:26;17.60;99.90
14527;DHT22;7350;51.208;4.238;2022-07-23T02:16:53;17.40;99.90
14527;DHT22;7350;51.208;4.238;2022-07-23T02:19:20;17.40;99.90
14527;DHT22;7350;51.208;4.238;2022-07-23T02:21:47;17.60;99.90
14527;DHT22;7350;51.208;4.238;2022-07-23T02:24:14;17.50;99.90
14527;DHT22;7350;51.208;4.238;2022-07-23T02:26:41;17.50;99.90
14527;DHT22;7350;51.208;4.238;2022-07-23T02:29:09;17.60;99.90
14527;DHT22;7350;51.208;4.238;2022-07-23T02:31:37;17.60;99.90
14527;DHT22;7350;51.208;4.238;2022-07-23T02:34:04;17.50;99.90
14527;DHT22;7350;51.208;4.238;2022-07-23T02:36:31;17.30;99.90
14527;DHT22;7350;51.208;4.238;2022-07-23T02:38:58;17.20;99.90
14527;DHT22;7350;51.208;4.238;2022-07-23T02:41:25;17.40;99.90
14527;DHT22;7350;51.208;4.238;2022-07-23T02:43:52;17.30;99.90
14527;DHT22;7350;51.208;4.238;2022-07-23T02:46:19;17.30;99.90
14527;DHT22;7350;51.208;4.238;2022-07-23T02:48:47;17.30;99.90
14527;DHT22;7350;51.208;4.238;2022-07-23T02:51:14;17.20;99.90
14527;DHT22;7350;51.208;4.238;2022-07-23T02:53:41;17.30;99.90
14527;DHT22;7350;51.208;4.238;2022-07-23T02:56:08;17.30;99.90
14527;DHT22;7350;51.208;4.238;2022-07-23T02:58:35;17.30;99.90
14527;DHT22;7350;51.208;4.238;2022-07-23T03:01:02;17.00;99.90
14527;DHT22;7350;51.208;4.238;2022-07-23T03:03:29;16.90;99.90
14527;DHT22;7350;51.208;4.238;2022-07-23T03:05:57;17.00;99.90
14527;DHT22;7350;51.208;4.238;2022-07-23T03:08:24;17.10;99.90
14527;DHT22;7350;51.208;4.238;2022-07-23T03:10:51;17.10;99.90
14527;DHT22;7350;51.208;4.238;2022-07-23T03:13:19;17.10;99.90
14527;DHT22;7350;51.208;4.238;2022-07-23T03:15:46;17.20;99.90
14527;DHT22;7350;51.208;4.238;2022-07-23T03:18:13;17.20;99.90
14527;DHT22;7350;51.208;4.238;2022-07-23T03:20:40;17.20;99.90
14527;DHT22;7350;51.208;4.238;2022-07-23T03:23:08;17.10;99.90
14527;DHT22;7350;51.208;4.238;2022-07-23T03:25:35;17.10;99.90
14527;DHT22;7350;51.208;4.238;2022-07-23T03:28:03;16.90;99.90
14527;DHT22;7350;51.208;4.238;2022-07-23T03:30:29;16.70;99.90
14527;DHT22;7350;51.208;4.238;2022-07-23T03:32:56;16.70;99.90
14527;DHT22;7350;51.208;4.238;2022-07-23T03:35:23;16.90;99.90
14527;DHT22;7350;51.208;4.238;2022-07-23T03:37:50;16.90;99.90
14527;DHT22;7350;51.208;4.238;2022-07-23T03:40:19;17.00;99.90
14527;DHT22;7350;51.208;4.238;2022-07-23T03:42:46;16.80;99.90
14527;DHT22;7350;51.208;4.238;2022-07-23T03:45:12;16.90;99.90
14527;DHT22;7350;51.208;4.238;2022-07-23T03:47:39;16.90;99.90
14527;DHT22;7350;51.208;4.238;2022-07-23T03:50:08;16.70;99.90
14527;DHT22;7350;51.208;4.238;2022-07-23T03:52:35;16.60;99.90
14527;DHT22;7350;51.208;4.238;2022-07-23T03:55:03;16.50;99.90
14527;DHT22;7350;51.208;4.238;2022-07-23T03:57:31;16.50;99.90
14527;DHT22;7350;51.208;4.238;2022-07-23T03:59:58;16.30;99.90
14527;DHT22;7350;51.208;4.238;2022-07-23T04:02:25;16.50;99.90
14527;DHT22;7350;51.208;4.238;2022-07-23T04:04:52;16.40;99.90
14527;DHT22;7350;51.208;4.238;2022-07-23T04:07:19;16.30;99.90
14527;DHT22;7350;51.208;4.238;2022-07-23T04:09:47;16.40;99.90
14527;DHT22;7350;51.208;4.238;2022-07-23T04:12:14;16.30;99.90
14527;DHT22;7350;51.208;4.238;2022-07-23T04:14:42;16.40;99.90
14527;DHT22;7350;51.208;4.238;2022-07-23T04:17:09;16.50;99.90
14527;DHT22;7350;51.208;4.238;2022-07-23T04:19:36;16.60;99.90
14527;DHT22;7350;51.208;4.238;2022-07-23T04:22:07;16.60;99.90
14527;DHT22;7350;51.208;4.238;2022-07-23T04:24:34;16.70;99.90
14527;DHT22;7350;51.208;4.238;2022-07-23T04:27:02;16.80;99.90
14527;DHT22;7350;51.208;4.238;2022-07-23T04:29:29;16.60;99.90
14527;DHT22;7350;51.208;4.238;2022-07-23T04:31:57;16.60;99.90
14527;DHT22;7350;51.208;4.238;2022-07-23T04:34:24;16.60;99.90
14527;DHT22;7350;51.208;4.238;2022-07-23T04:36:52;16.60;99.90
14527;DHT22;7350;51.208;4.238;2022-07-23T04:39:19;16.60;99.90
14527;DHT22;7350;51.208;4.238;2022-07-23T04:41:46;16.70;99.90
14527;DHT22;7350;51.208;4.238;2022-07-23T04:44:13;16.60;99.90
14527;DHT22;7350;51.208;4.238;2022-07-23T04:46:40;16.50;99.90
14527;DHT22;7350;51.208;4.238;2022-07-23T04:49:08;16.80;99.90
14527;DHT22;7350;51.208;4.238;2022-07-23T04:51:35;16.80;99.90
14527;DHT22;7350;51.208;4.238;2022-07-23T04:54:02;16.70;99.90
14527;DHT22;7350;51.208;4.238;2022-07-23T04:56:29;16.80;99.90
14527;DHT22;7350;51.208;4.238;2022-07-23T04:58:56;16.90;99.90
14527;DHT22;7350;51.208;4.238;2022-07-23T05:01:30;16.80;99.90
14527;DHT22;7350;51.208;4.238;2022-07-23T05:03:57;16.90;99.90
14527;DHT22;7350;51.208;4.238;2022-07-23T05:06:25;17.00;99.90
14527;DHT22;7350;51.208;4.238;2022-07-23T05:08:52;17.00;99.90
14527;DHT22;7350;51.208;4.238;2022-07-23T05:11:20;16.90;99.90
14527;DHT22;7350;51.208;4.238;2022-07-23T05:13:47;16.80;99.90
14527;DHT22;7350;51.208;4.238;2022-07-23T05:16:14;16.80;99.90
14527;DHT22;7350;51.208;4.238;2022-07-23T05:18:41;17.00;99.90
14527;DHT22;7350;51.208;4.238;2022-07-23T05:21:08;17.30;99.90
14527;DHT22;7350;51.208;4.238;2022-07-23T05:23:36;17.20;99.90
14527;DHT22;7350;51.208;4.238;2022-07-23T05:26:03;17.30;99.90
14527;DHT22;7350;51.208;4.238;2022-07-23T05:28:31;17.40;99.90
14527;DHT22;7350;51.208;4.238;2022-07-23T05:30:58;17.40;99.90
14527;DHT22;7350;51.208;4.238;2022-07-23T05:33:25;17.50;99.90
14527;DHT22;7350;51.208;4.238;2022-07-23T05:35:52;17.90;99.90
14527;DHT22;7350;51.208;4.238;2022-07-23T05:38:19;18.10;99.90
14527;DHT22;7350;51.208;4.238;2022-07-23T05:40:47;18.20;99.90
14527;DHT22;7350;51.208;4.238;2022-07-23T05:43:14;18.40;99.90
14527;DHT22;7350;51.208;4.238;2022-07-23T05:45:41;18.60;99.90
14527;DHT22;7350;51.208;4.238;2022-07-23T05:48:08;18.80;99.90
14527;DHT22;7350;51.208;4.238;2022-07-23T05:50:36;19.10;99.90
14527;DHT22;7350;51.208;4.238;2022-07-23T05:53:04;19.40;99.90
14527;DHT22;7350;51.208;4.238;2022-07-23T05:55:31;19.40;99.90
14527;DHT22;7350;51.208;4.238;2022-07-23T05:57:59;19.50;99.90
14527;DHT22;7350;51.208;4.238;2022-07-23T06:00:27;19.70;99.90
14527;DHT22;7350;51.208;4.238;2022-07-23T06:02:54;19.80;99.90
14527;DHT22;7350;51.208;4.238;2022-07-23T06:05:22;20.00;99.90
14527;DHT22;7350;51.208;4.238;2022-07-23T06:07:49;20.00;99.90
14527;DHT22;7350;51.208;4.238;2022-07-23T06:10:16;20.40;99.90
14527;DHT22;7350;51.208;4.238;2022-07-23T06:12:43;20.60;99.90
14527;DHT22;7350;51.208;4.238;2022-07-23T06:15:11;20.90;99.90
14527;DHT22;7350;51.208;4.238;2022-07-23T06:17:38;21.20;99.90
14527;DHT22;7350;51.208;4.238;2022-07-23T06:20:07;21.40;99.90
14527;DHT22;7350;51.208;4.238;2022-07-23T06:22:34;21.60;99.90
14527;DHT22;7350;51.208;4.238;2022-07-23T06:25:02;21.90;99.90
14527;DHT22;7350;51.208;4.238;2022-07-23T06:27:29;22.10;99.90
14527;DHT22;7350;51.208;4.238;2022-07-23T06:29:56;22.20;99.90
14527;DHT22;7350;51.208;4.238;2022-07-23T06:32:24;22.40;99.90
14527;DHT22;7350;51.208;4.238;2022-07-23T06:34:51;22.30;99.90
14527;DHT22;7350;51.208;4.238;2022-07-23T06:37:18;22.20;99.90
14527;DHT22;7350;51.208;4.238;2022-07-23T06:39:45;21.90;99.90
14527;DHT22;7350;51.208;4.238;2022-07-23T06:42:12;21.40;99.90
14527;DHT22;7350;51.208;4.238;2022-07-23T06:44:40;21.30;99.90
14527;DHT22;7350;51.208;4.238;2022-07-23T06:47:07;21.50;99.90
14527;DHT22;7350;51.208;4.238;2022-07-23T06:49:36;21.80;99.90
14527;DHT22;7350;51.208;4.238;2022-07-23T06:52:03;21.80;99.90
14527;DHT22;7350;51.208;4.238;2022-07-23T06:54:30;21.90;99.90
14527;DHT22;7350;51.208;4.238;2022-07-23T06:56:57;21.40;99.90
14527;DHT22;7350;51.208;4.238;2022-07-23T06:59:23;21.50;99.90
14527;DHT22;7350;51.208;4.238;2022-07-23T07:01:50;21.70;99.90
14527;DHT22;7350;51.208;4.238;2022-07-23T07:04:17;21.70;99.90
14527;DHT22;7350;51.208;4.238;2022-07-23T07:06:46;21.70;99.90
14527;DHT22;7350;51.208;4.238;2022-07-23T07:09:13;21.60;99.90
14527;DHT22;7350;51.208;4.238;2022-07-23T07:11:40;21.50;99.90
14527;DHT22;7350;51.208;4.238;2022-07-23T07:14:07;21.40;99.90
14527;DHT22;7350;51.208;4.238;2022-07-23T07:16:33;21.40;99.90
14527;DHT22;7350;51.208;4.238;2022-07-23T07:19:00;21.60;99.90
14527;DHT22;7350;51.208;4.238;2022-07-23T07:21:27;21.50;99.90
14527;DHT22;7350;51.208;4.238;2022-07-23T07:23:56;21.50;99.90
14527;DHT22;7350;51.208;4.238;2022-07-23T07:26:23;21.60;99.90
14527;DHT22;7350;51.208;4.238;2022-07-23T07:28:49;21.70;99.90
14527;DHT22;7350;51.208;4.238;2022-07-23T07:31:17;21.80;99.90
14527;DHT22;7350;51.208;4.238;2022-07-23T07:33:44;21.60;99.90
14527;DHT22;7350;51.208;4.238;2022-07-23T07:36:11;21.50;99.90
14527;DHT22;7350;51.208;4.238;2022-07-23T07:38:37;21.40;99.90
14527;DHT22;7350;51.208;4.238;2022-07-23T07:41:06;21.50;99.90
14527;DHT22;7350;51.208;4.238;2022-07-23T07:43:35;21.30;99.90
14527;DHT22;7350;51.208;4.238;2022-07-23T07:46:02;21.60;99.90
14527;DHT22;7350;51.208;4.238;2022-07-23T07:48:29;21.80;99.90
14527;DHT22;7350;51.208;4.238;2022-07-23T07:50:56;21.90;99.90
14527;DHT22;7350;51.208;4.238;2022-07-23T07:53:23;22.10;99.90
14527;DHT22;7350;51.208;4.238;2022-07-23T07:55:50;22.00;99.90
14527;DHT22;7350;51.208;4.238;2022-07-23T07:58:18;22.00;99.90
14527;DHT22;7350;51.208;4.238;2022-07-23T08:00:45;22.00;99.90
14527;DHT22;7350;51.208;4.238;2022-07-23T08:03:12;22.40;99.90
14527;DHT22;7350;51.208;4.238;2022-07-23T08:05:39;22.60;99.90
14527;DHT22;7350;51.208;4.238;2022-07-23T08:08:06;22.60;99.90
14527;DHT22;7350;51.208;4.238;2022-07-23T08:10:35;22.70;99.90
14527;DHT22;7350;51.208;4.238;2022-07-23T08:13:02;22.80;99.90
14527;DHT22;7350;51.208;4.238;2022-07-23T08:15:30;22.90;99.90
14527;DHT22;7350;51.208;4.238;2022-07-23T08:17:58;22.90;99.90
14527;DHT22;7350;51.208;4.238;2022-07-23T08:20:26;22.90;99.90
14527;DHT22;7350;51.208;4.238;2022-07-23T08:22:54;23.10;99.90
14527;DHT22;7350;51.208;4.238;2022-07-23T08:25:24;23.40;99.90
14527;DHT22;7350;51.208;4.238;2022-07-23T08:27:51;23.40;99.90
14527;DHT22;7350;51.208;4.238;2022-07-23T08:30:19;23.40;99.90
14527;DHT22;7350;51.208;4.238;2022-07-23T08:32:53;23.40;99.90
14527;DHT22;7350;51.208;4.238;2022-07-23T08:35:27;23.20;99.90
14527;DHT22;7350;51.208;4.238;2022-07-23T08:37:55;23.30;99.90
14527;DHT22;7350;51.208;4.238;2022-07-23T08:40:23;23.40;99.90
14527;DHT22;7350;51.208;4.238;2022-07-23T08:42:52;23.30;99.90
14527;DHT22;7350;51.208;4.238;2022-07-23T08:45:20;23.20;99.90
14527;DHT22;7350;51.208;4.238;2022-07-23T08:47:51;23.30;99.90
14527;DHT22;7350;51.208;4.238;2022-07-23T08:50:18;23.50;99.90
14527;DHT22;7350;51.208;4.238;2022-07-23T08:52:45;23.60;99.90
14527;DHT22;7350;51.208;4.238;2022-07-23T08:55:13;23.70;99.90
14527;DHT22;7350;51.208;4.238;2022-07-23T08:57:41;23.90;99.90
14527;DHT22;7350;51.208;4.238;2022-07-23T09:00:09;23.80;99.90
14527;DHT22;7350;51.208;4.238;2022-07-23T09:02:40;23.90;99.90
14527;DHT22;7350;51.208;4.238;2022-07-23T09:05:10;24.00;99.90
14527;DHT22;7350;51.208;4.238;2022-07-23T09:07:38;24.00;99.90
14527;DHT22;7350;51.208;4.238;2022-07-23T09:10:25;24.00;99.90
14527;DHT22;7350;51.208;4.238;2022-07-23T09:12:52;23.90;99.90
14527;DHT22;7350;51.208;4.238;2022-07-23T09:15:19;23.90;99.90
14527;DHT22;7350;51.208;4.238;2022-07-23T09:17:46;24.00;99.90
14527;DHT22;7350;51.208;4.238;2022-07-23T09:20:16;24.10;99.90
14527;DHT22;7350;51.208;4.238;2022-07-23T09:22:45;24.30;99.90
14527;DHT22;7350;51.208;4.238;2022-07-23T09:25:14;24.30;99.90
14527;DHT22;7350;51.208;4.238;2022-07-23T09:27:50;24.30;99.90
14527;DHT22;7350;51.208;4.238;2022-07-23T09:30:19;24.20;99.90
14527;DHT22;7350;51.208;4.238;2022-07-23T09:33:04;24.10;99.90
14527;DHT22;7350;51.208;4.238;2022-07-23T09:35:47;24.00;99.90
14527;DHT22;7350;51.208;4.238;2022-07-23T09:38:15;24.20;99.90
14527;DHT22;7350;51.208;4.238;2022-07-23T09:40:43;24.00;99.90
14527;DHT22;7350;51.208;4.238;2022-07-23T09:43:11;24.10;99.90
14527;DHT22;7350;51.208;4.238;2022-07-23T09:45:38;24.10;99.90
14527;DHT22;7350;51.208;4.238;2022-07-23T09:48:14;24.00;99.90
14527;DHT22;7350;51.208;4.238;2022-07-23T09:50:41;24.10;99.90
14527;DHT22;7350;51.208;4.238;2022-07-23T09:53:10;24.20;99.90
14527;DHT22;7350;51.208;4.238;2022-07-23T09:55:51;24.40;99.90
14527;DHT22;7350;51.208;4.238;2022-07-23T09:58:21;24.20;99.90
14527;DHT22;7350;51.208;4.238;2022-07-23T10:00:52;24.40;99.90
14527;DHT22;7350;51.208;4.238;2022-07-23T10:03:19;24.70;99.90
14527;DHT22;7350;51.208;4.238;2022-07-23T10:05:47;25.00;99.90
14527;DHT22;7350;51.208;4.238;2022-07-23T10:08:18;25.30;99.90
14527;DHT22;7350;51.208;4.238;2022-07-23T10:10:46;25.20;99.90
14527;DHT22;7350;51.208;4.238;2022-07-23T10:13:14;25.30;99.90
14527;DHT22;7350;51.208;4.238;2022-07-23T10:15:58;25.50;99.90
14527;DHT22;7350;51.208;4.238;2022-07-23T10:18:26;25.50;99.90
14527;DHT22;7350;51.208;4.238;2022-07-23T10:20:53;25.30;99.90
14527;DHT22;7350;51.208;4.238;2022-07-23T10:23:26;25.20;99.90
14527;DHT22;7350;51.208;4.238;2022-07-23T10:25:59;24.90;99.90
14527;DHT22;7350;51.208;4.238;2022-07-23T10:28:47;25.30;99.90
14527;DHT22;7350;51.208;4.238;2022-07-23T10:31:26;25.60;99.90
14527;DHT22;7350;51.208;4.238;2022-07-23T10:34:01;25.90;99.90
14527;DHT22;7350;51.208;4.238;2022-07-23T10:36:37;25.90;99.90
14527;DHT22;7350;51.208;4.238;2022-07-23T10:39:13;25.50;99.90
14527;DHT22;7350;51.208;4.238;2022-07-23T10:41:42;25.40;99.90
14527;DHT22;7350;51.208;4.238;2022-07-23T10:44:11;25.50;99.90
14527;DHT22;7350;51.208;4.238;2022-07-23T10:46:55;25.50;99.90
14527;DHT22;7350;51.208;4.238;2022-07-23T10:49:32;25.80;99.90
14527;DHT22;7350;51.208;4.238;2022-07-23T10:52:16;26.10;99.90
14527;DHT22;7350;51.208;4.238;2022-07-23T10:54:46;26.20;99.90
14527;DHT22;7350;51.208;4.238;2022-07-23T10:57:15;25.70;99.90
14527;DHT22;7350;51.208;4.238;2022-07-23T11:00:11;25.70;99.90
14527;DHT22;7350;51.208;4.238;2022-07-23T11:02:39;25.90;99.90
14527;DHT22;7350;51.208;4.238;2022-07-23T11:05:08;25.80;99.90
14527;DHT22;7350;51.208;4.238;2022-07-23T11:07:36;25.90;99.90
14527;DHT22;7350;51.208;4.238;2022-07-23T11:10:06;26.10;99.90
14527;DHT22;7350;51.208;4.238;2022-07-23T11:12:53;26.20;99.90
14527;DHT22;7350;51.208;4.238;2022-07-23T11:15:20;25.50;99.90
14527;DHT22;7350;51.208;4.238;2022-07-23T11:17:59;25.40;99.90
14527;DHT22;7350;51.208;4.238;2022-07-23T11:20:26;25.50;99.90
14527;DHT22;7350;51.208;4.238;2022-07-23T11:22:55;25.50;99.90
14527;DHT22;7350;51.208;4.238;2022-07-23T11:25:33;25.50;99.90
14527;DHT22;7350;51.208;4.238;2022-07-23T11:28:15;25.80;99.90
14527;DHT22;7350;51.208;4.238;2022-07-23T11:30:44;25.80;99.90
14527;DHT22;7350;51.208;4.238;2022-07-23T11:33:20;25.50;99.90
14527;DHT22;7350;51.208;4.238;2022-07-23T11:35:49;25.80;99.90
14527;DHT22;7350;51.208;4.238;2022-07-23T11:38:18;25.80;99.90
14527;DHT22;7350;51.208;4.238;2022-07-23T11:40:49;25.90;99.90
14527;DHT22;7350;51.208;4.238;2022-07-23T11:43:16;26.00;99.90
14527;DHT22;7350;51.208;4.238;2022-07-23T11:45:45;26.00;99.90
14527;DHT22;7350;51.208;4.238;2022-07-23T11:48:17;26.20;99.90
14527;DHT22;7350;51.208;4.238;2022-07-23T11:50:44;25.90;99.90
14527;DHT22;7350;51.208;4.238;2022-07-23T11:53:12;26.10;99.90
14527;DHT22;7350;51.208;4.238;2022-07-23T11:55:39;26.10;99.90
14527;DHT22;7350;51.208;4.238;2022-07-23T11:58:08;26.10;99.90
14527;DHT22;7350;51.208;4.238;2022-07-23T12:00:34;26.00;99.90
14527;DHT22;7350;51.208;4.238;2022-07-23T12:03:03;26.30;99.90
14527;DHT22;7350;51.208;4.238;2022-07-23T12:05:33;26.70;99.90
14527;DHT22;7350;51.208;4.238;2022-07-23T12:08:02;26.80;99.90
14527;DHT22;7350;51.208;4.238;2022-07-23T12:10:34;26.80;99.90
14527;DHT22;7350;51.208;4.238;2022-07-23T12:13:03;26.60;99.90
14527;DHT22;7350;51.208;4.238;2022-07-23T12:15:34;26.50;99.90
14527;DHT22;7350;51.208;4.238;2022-07-23T12:18:07;26.60;99.90
14527;DHT22;7350;51.208;4.238;2022-07-23T12:20:36;26.40;99.90
14527;DHT22;7350;51.208;4.238;2022-07-23T12:23:06;26.50;99.90
14527;DHT22;7350;51.208;4.238;2022-07-23T12:25:35;26.50;99.90
14527;DHT22;7350;51.208;4.238;2022-07-23T12:28:05;26.50;99.90
14527;DHT22;7350;51.208;4.238;2022-07-23T12:30:37;26.60;99.90
14527;DHT22;7350;51.208;4.238;2022-07-23T12:33:05;26.60;99.90
14527;DHT22;7350;51.208;4.238;2022-07-23T12:35:37;26.70;99.90
14527;DHT22;7350;51.208;4.238;2022-07-23T12:38:08;26.90;99.90
14527;DHT22;7350;51.208;4.238;2022-07-23T12:40:37;26.80;99.90
14527;DHT22;7350;51.208;4.238;2022-07-23T12:43:09;26.90;99.90
14527;DHT22;7350;51.208;4.238;2022-07-23T12:45:45;26.80;99.90
14527;DHT22;7350;51.208;4.238;2022-07-23T12:48:21;27.00;99.90
14527;DHT22;7350;51.208;4.238;2022-07-23T12:50:56;27.20;99.90
14527;DHT22;7350;51.208;4.238;2022-07-23T12:53:26;27.40;99.90
14527;DHT22;7350;51.208;4.238;2022-07-23T12:56:03;27.30;99.90
14527;DHT22;7350;51.208;4.238;2022-07-23T12:58:42;27.10;99.90
14527;DHT22;7350;51.208;4.238;2022-07-23T13:01:22;26.80;99.90
14527;DHT22;7350;51.208;4.238;2022-07-23T13:03:56;26.90;99.90
14527;DHT22;7350;51.208;4.238;2022-07-23T13:06:24;26.50;99.90
14527;DHT22;7350;51.208;4.238;2022-07-23T13:08:52;26.80;99.90
14527;DHT22;7350;51.208;4.238;2022-07-23T13:11:19;27.30;99.90
14527;DHT22;7350;51.208;4.238;2022-07-23T13:13:46;27.50;99.90
14527;DHT22;7350;51.208;4.238;2022-07-23T13:16:14;27.80;99.90
14527;DHT22;7350;51.208;4.238;2022-07-23T13:18:41;27.60;99.90
14527;DHT22;7350;51.208;4.238;2022-07-23T13:21:08;27.70;99.90
14527;DHT22;7350;51.208;4.238;2022-07-23T13:23:36;27.90;99.90
14527;DHT22;7350;51.208;4.238;2022-07-23T13:26:03;28.00;99.90
14527;DHT22;7350;51.208;4.238;2022-07-23T13:28:30;28.10;99.90
14527;DHT22;7350;51.208;4.238;2022-07-23T13:30:57;28.10;99.90
14527;DHT22;7350;51.208;4.238;2022-07-23T13:33:26;28.10;99.90
14527;DHT22;7350;51.208;4.238;2022-07-23T13:35:53;28.20;99.90
14527;DHT22;7350;51.208;4.238;2022-07-23T13:38:21;28.30;99.90
14527;DHT22;7350;51.208;4.238;2022-07-23T13:40:50;28.20;99.90
14527;DHT22;7350;51.208;4.238;2022-07-23T13:43:19;28.30;99.90
14527;DHT22;7350;51.208;4.238;2022-07-23T13:45:46;28.10;99.90
14527;DHT22;7350;51.208;4.238;2022-07-23T13:48:14;28.20;99.90
14527;DHT22;7350;51.208;4.238;2022-07-23T13:50:44;28.50;99.90
14527;DHT22;7350;51.208;4.238;2022-07-23T13:53:13;28.50;99.90
14527;DHT22;7350;51.208;4.238;2022-07-23T13:55:41;28.60;99.90
14527;DHT22;7350;51.208;4.238;2022-07-23T13:58:09;28.30;99.90
14527;DHT22;7350;51.208;4.238;2022-07-23T14:00:39;28.10;99.90
14527;DHT22;7350;51.208;4.238;2022-07-23T14:03:06;28.00;99.90
14527;DHT22;7350;51.208;4.238;2022-07-23T14:05:33;28.00;99.90
14527;DHT22;7350;51.208;4.238;2022-07-23T14:08:02;28.20;99.90
14527;DHT22;7350;51.208;4.238;2022-07-23T14:10:30;28.20;99.90
14527;DHT22;7350;51.208;4.238;2022-07-23T14:12:57;27.90;99.90
14527;DHT22;7350;51.208;4.238;2022-07-23T14:15:26;27.80;99.90
14527;DHT22;7350;51.208;4.238;2022-07-23T14:17:53;28.10;99.90
14527;DHT22;7350;51.208;4.238;2022-07-23T14:20:21;28.20;99.90
14527;DHT22;7350;51.208;4.238;2022-07-23T14:22:49;28.30;99.90
14527;DHT22;7350;51.208;4.238;2022-07-23T14:25:17;28.40;99.90
14527;DHT22;7350;51.208;4.238;2022-07-23T14:27:45;28.00;99.90
14527;DHT22;7350;51.208;4.238;2022-07-23T14:30:13;28.10;99.90
14527;DHT22;7350;51.208;4.238;2022-07-23T14:32:41;28.20;99.90
14527;DHT22;7350;51.208;4.238;2022-07-23T14:35:08;28.40;99.90
14527;DHT22;7350;51.208;4.238;2022-07-23T14:37:35;28.60;99.90
14527;DHT22;7350;51.208;4.238;2022-07-23T14:40:03;28.40;99.90
14527;DHT22;7350;51.208;4.238;2022-07-23T14:42:31;28.40;99.90
14527;DHT22;7350;51.208;4.238;2022-07-23T14:44:58;28.20;99.90
14527;DHT22;7350;51.208;4.238;2022-07-23T14:47:25;28.30;99.90
14527;DHT22;7350;51.208;4.238;2022-07-23T14:49:52;28.30;99.90
14527;DHT22;7350;51.208;4.238;2022-07-23T14:52:19;28.50;99.90
14527;DHT22;7350;51.208;4.238;2022-07-23T14:54:46;28.80;99.90
14527;DHT22;7350;51.208;4.238;2022-07-23T14:57:14;28.60;99.90
14527;DHT22;7350;51.208;4.238;2022-07-23T14:59:42;28.80;99.90
14527;DHT22;7350;51.208;4.238;2022-07-23T15:02:09;28.90;99.90
14527;DHT22;7350;51.208;4.238;2022-07-23T15:04:36;28.90;99.90
14527;DHT22;7350;51.208;4.238;2022-07-23T15:07:03;29.00;99.90
14527;DHT22;7350;51.208;4.238;2022-07-23T15:09:30;29.00;99.90
14527;DHT22;7350;51.208;4.238;2022-07-23T15:11:57;29.20;99.90
14527;DHT22;7350;51.208;4.238;2022-07-23T15:14:24;29.00;99.90
14527;DHT22;7350;51.208;4.238;2022-07-23T15:16:53;28.80;99.90
14527;DHT22;7350;51.208;4.238;2022-07-23T15:19:20;29.00;99.90
14527;DHT22;7350;51.208;4.238;2022-07-23T15:21:47;29.00;99.90
14527;DHT22;7350;51.208;4.238;2022-07-23T15:24:14;29.20;99.90
14527;DHT22;7350;51.208;4.238;2022-07-23T15:26:41;29.40;99.90
14527;DHT22;7350;51.208;4.238;2022-07-23T15:29:08;29.50;99.90
14527;DHT22;7350;51.208;4.238;2022-07-23T15:31:35;29.10;99.90
14527;DHT22;7350;51.208;4.238;2022-07-23T15:34:03;29.30;99.90
14527;DHT22;7350;51.208;4.238;2022-07-23T15:36:31;29.20;99.90
14527;DHT22;7350;51.208;4.238;2022-07-23T15:38:57;29.00;99.90
14527;DHT22;7350;51.208;4.238;2022-07-23T15:41:24;28.70;99.90
14527;DHT22;7350;51.208;4.238;2022-07-23T15:43:51;28.90;99.90
14527;DHT22;7350;51.208;4.238;2022-07-23T15:46:20;29.10;99.90
14527;DHT22;7350;51.208;4.238;2022-07-23T15:48:48;29.20;99.90
14527;DHT22;7350;51.208;4.238;2022-07-23T15:51:17;29.20;99.90
14527;DHT22;7350;51.208;4.238;2022-07-23T15:53:44;28.90;99.90